Time;durP1;ratioP1;P1;durP2;ratioP2;P2;SDS_P1;SDS_P2;PMS_P1;PMS_P2;Temp;Humidity;BMP_temperature;BMP_pressure;BME280_temperature;BME280_humidity;BME280_pressure;Samples;Min_cycle;Max_cycle;Signal;HPM_P1;HPM_P2
2024/01/03 00:00:55;;;;;;;;;;;;;;;6.66;100.00;97739.78;5005562;28;19918;-88
2024/01/03 00:03:22;;;;;;;;;;;;;;;6.58;100.00;97738.56;5003871;28;19975;-87
2024/01/03 00:05:47;;;;;;;;;;;;;;;6.62;100.00;97748.81;5005029;28;19921;-87
2024/01/03 00:08:20;;;;;;;;;;;;;;;6.71;100.00;97742.16;5005504;28;19924;-85
2024/01/03 00:10:45;;;;;;;;;;;;;;;6.60;100.00;97745.41;5005195;28;19988;-85
2024/01/03 00:13:29;;;;;;;;;;;;;;;6.65;100.00;97747.78;5005163;28;20373;-86
2024/01/03 00:16:00;;;;;;;;;;;;;;;6.60;100.00;97744.59;5005428;28;19924;-84
2024/01/03 06:12:16;;;;;;;;;;;;;;;6.89;100.00;97813.91;4983524;28;19933;-79
2024/01/03 06:14:41;;;;;;;;;;;;;;;7.02;100.00;97814.03;4983691;28;19922;-81
2024/01/03 06:17:06;;;;;;;;;;;;;;;6.94;100.00;97801.34;4983180;28;19987;-83
2024/01/03 06:19:32;;;;;;;;;;;;;;;6.88;100.00;97807.81;4983459;28;19972;-83
2024/01/03 06:21:57;;;;;;;;;;;;;;;6.96;100.00;97804.72;4981625;28;19922;-83
2024/01/03 06:24:23;;;;;;;;;;;;;;;6.89;100.00;97803.38;4982003;28;19925;-87
2024/01/03 06:26:50;;;;;;;;;;;;;;;6.97;100.00;97798.50;4982805;28;21364;-88
2024/01/03 06:29:15;;;;;;;;;;;;;;;6.97;100.00;97811.66;4981634;28;19972;-87
2024/01/03 06:31:40;;;;;;;;;;;;;;;7.00;100.00;97795.69;4983264;28;19957;-88
2024/01/03 06:34:06;;;;;;;;;;;;;;;6.87;100.00;97784.22;4982956;28;19973;-88
2024/01/03 06:36:31;;;;;;;;;;;;;;;6.87;100.00;97821.06;4983184;28;19924;-84
2024/01/03 06:38:56;;;;;;;;;;;;;;;6.89;100.00;97825.31;4982969;28;20260;-84
2024/01/03 06:41:22;;;;;;;;;;;;;;;7.00;100.00;97827.28;4982994;28;19922;-83
2024/01/03 06:43:47;;;;;;;;;;;;;;;7.04;100.00;97834.09;4983740;28;20220;-82
2024/01/03 06:46:13;;;;;;;;;;;;;;;6.95;100.00;97805.66;4982028;28;20392;-84
2024/01/03 06:48:38;;;;;;;;;;;;;;;7.05;100.00;97830.53;4982795;28;20285;-85
2024/01/03 06:51:04;;;;;;;;;;;;;;;7.01;100.00;97822.88;4983091;28;19975;-83
2024/01/03 06:53:29;;;;;;;;;;;;;;;7.01;100.00;97838.69;4983244;28;19969;-81
2024/01/03 06:55:55;;;;;;;;;;;;;;;7.02;100.00;97825.44;4981683;28;19923;-82
2024/01/03 06:58:20;;;;;;;;;;;;;;;7.02;100.00;97825.44;4982157;28;20375;-81
2024/01/03 07:00:45;;;;;;;;;;;;;;;7.05;100.00;97829.66;4983213;28;19914;-82
2024/01/03 07:03:11;;;;;;;;;;;;;;;7.03;100.00;97842.91;4983217;28;20365;-82
2024/01/03 07:05:36;;;;;;;;;;;;;;;7.03;100.00;97828.91;4983051;28;19918;-82
2024/01/03 07:08:02;;;;;;;;;;;;;;;7.00;100.00;97837.81;4983007;28;19984;-84
2024/01/03 07:10:31;;;;;;;;;;;;;;;6.95;100.00;97813.56;4981264;28;20285;-79
2024/01/03 07:12:56;;;;;;;;;;;;;;;6.90;100.00;97808.56;4983015;28;20405;-82
2024/01/03 07:15:21;;;;;;;;;;;;;;;6.79;100.00;97815.41;4982586;28;19922;-80
2024/01/03 07:17:47;;;;;;;;;;;;;;;6.91;100.00;97819.97;4982960;28;20345;-81
2024/01/03 07:20:12;;;;;;;;;;;;;;;6.91;100.00;97812.91;4981638;28;19917;-87
2024/01/03 07:22:37;;;;;;;;;;;;;;;6.88;100.00;97801.72;4989481;28;20266;-87
2024/01/03 07:25:02;;;;;;;;;;;;;;;6.83;100.00;97807.25;4980362;28;19922;-85
2024/01/03 07:27:28;;;;;;;;;;;;;;;6.71;100.00;97829.84;4982852;28;19969;-86
2024/01/03 07:29:53;;;;;;;;;;;;;;;6.71;100.00;97816.69;4981725;28;20020;-85
2024/01/03 07:32:19;;;;;;;;;;;;;;;6.62;100.00;97806.72;4981354;28;20285;-87
2024/01/03 07:34:44;;;;;;;;;;;;;;;6.56;100.00;97814.97;4982574;28;20286;-85
2024/01/03 07:37:09;;;;;;;;;;;;;;;6.47;100.00;97818.97;5006296;28;20388;-86
2024/01/03 07:39:34;;;;;;;;;;;;;;;6.57;100.00;97834.22;5004090;28;20265;-86
2024/01/03 07:41:59;;;;;;;;;;;;;;;6.56;100.00;97849.19;4982527;28;19945;-85
2024/01/03 07:44:25;;;;;;;;;;;;;;;6.49;100.00;97853.94;4981093;28;19930;-85
2024/01/03 08:52:23;;;;;;;;;;;;;;;6.51;100.00;97886.28;4992902;23;20380;-86
2024/01/03 08:54:48;;;;;;;;;;;;;;;6.53;100.00;97896.72;5004453;28;19925;-84
2024/01/03 08:57:14;;;;;;;;;;;;;;;6.52;100.00;97898.47;5004492;28;19924;-82
2024/01/03 08:59:40;;;;;;;;;;;;;;;6.59;100.00;97899.00;5004866;28;20008;-83
2024/01/03 09:02:06;;;;;;;;;;;;;;;6.63;100.00;97895.25;5004369;28;20008;-83
2024/01/03 09:04:31;;;;;;;;;;;;;;;6.69;100.00;97894.91;5011494;28;20380;-83
2024/01/03 09:06:56;;;;;;;;;;;;;;;6.61;100.00;97896.28;5002976;28;19918;-82
2024/01/03 09:09:22;;;;;;;;;;;;;;;6.64;100.00;97904.00;5004180;28;20004;-85
2024/01/03 09:11:47;;;;;;;;;;;;;;;6.62;100.00;97901.47;5002867;28;19918;-82
2024/01/03 09:14:13;;;;;;;;;;;;;;;6.58;100.00;97909.63;5003374;28;19921;-85
2024/01/03 09:16:39;;;;;;;;;;;;;;;6.84;100.00;97905.47;5003769;28;19921;-85
2024/01/03 09:19:04;;;;;;;;;;;;;;;6.66;100.00;97897.69;5001804;28;19921;-86
2024/01/03 09:21:31;;;;;;;;;;;;;;;13.66;100.00;97894.22;5002416;28;19922;-87
2024/01/03 09:23:56;;;;;;;;;;;;;;;16.40;100.00;97868.50;5004041;28;19921;-89
2024/01/03 09:26:24;;;;;;;;;;;;;;;16.27;100.00;97858.16;5003779;28;19968;-81
2024/01/03 09:28:51;;;;;;;;;;;;;;;12.51;100.00;97882.41;5003617;28;19918;-87
2024/01/03 09:31:17;;;;;;;;;;;;;;;9.79;100.00;97896.50;5010201;28;19918;-86
2024/01/03 09:33:42;;;;;;;;;;;;;;;8.69;100.00;97907.44;5010796;28;19924;-87
2024/01/03 09:36:15;;;;;;;;;;;;;;;8.26;100.00;97918.06;5002562;28;19917;-88
2024/01/03 09:38:40;;;;;;;;;;;;;;;7.85;100.00;97914.44;5003402;28;20297;-86
2024/01/03 09:41:12;;;;;;;;;;;;;;;7.78;100.00;97927.13;5010631;28;19921;-86
2024/01/03 09:43:39;;;;;;;;;;;;;;;7.64;100.00;97913.94;5002886;28;19917;-87
2024/01/03 09:46:05;;;;;;;;;;;;;;;7.46;100.00;97929.09;5004008;28;20019;-87
2024/01/03 09:48:30;;;;;;;;;;;;;;;7.38;100.00;97918.16;5003267;28;20367;-85
2024/01/03 09:50:55;;;;;;;;;;;;;;;7.35;100.00;97911.25;5002474;28;20369;-86
2024/01/03 09:53:21;;;;;;;;;;;;;;;7.31;100.00;97909.78;5018098;28;20013;-84
2024/01/03 09:55:47;;;;;;;;;;;;;;;7.34;100.00;97903.44;5003639;28;19964;-83
2024/01/03 09:58:12;;;;;;;;;;;;;;;7.16;100.00;97916.78;5003291;28;19929;-85
2024/01/03 10:00:37;;;;;;;;;;;;;;;7.15;100.00;97914.22;5003202;28;19918;-87
2024/01/03 10:03:07;;;;;;;;;;;;;;;7.06;100.00;97905.94;5003149;28;19922;-85
2024/01/03 10:05:33;;;;;;;;;;;;;;;7.05;100.00;97920.06;5001638;28;19921;-84
2024/01/03 10:07:58;;;;;;;;;;;;;;;7.00;100.00;97919.44;5003174;28;19917;-84
2024/01/03 10:10:31;;;;;;;;;;;;;;;6.98;100.00;97934.50;5009768;28;19991;-87
2024/01/03 10:12:56;;;;;;;;;;;;;;;7.08;100.00;97922.50;4985755;28;19925;-84
2024/01/03 10:15:22;;;;;;;;;;;;;;;6.99;100.00;97936.22;5010840;28;19929;-81
2024/01/03 10:17:47;;;;;;;;;;;;;;;6.99;100.00;97941.47;5003036;28;20008;-82
2024/01/03 10:20:24;;;;;;;;;;;;;;;6.95;100.00;97939.94;5001417;28;19968;-83
2024/01/03 10:23:02;;;;;;;;;;;;;;;6.89;100.00;97940.28;5002953;28;20000;-83
2024/01/03 10:25:27;;;;;;;;;;;;;;;7.00;100.00;97942.31;5002769;28;19957;-82
2024/01/03 10:28:00;;;;;;;;;;;;;;;6.94;100.00;97947.94;5003330;28;20360;-84
2024/01/03 10:30:25;;;;;;;;;;;;;;;6.99;100.00;97933.56;5002584;28;19944;-83
2024/01/03 10:32:57;;;;;;;;;;;;;;;6.97;100.00;97938.06;5002751;28;20376;-83
2024/01/03 10:35:25;;;;;;;;;;;;;;;7.03;100.00;97940.34;5001129;28;20013;-84
2024/01/03 10:37:50;;;;;;;;;;;;;;;6.89;100.00;97930.63;5017658;28;19920;-83
2024/01/03 10:40:16;;;;;;;;;;;;;;;6.88;100.00;97931.56;5002785;28;19925;-83
2024/01/03 10:42:41;;;;;;;;;;;;;;;6.84;100.00;97937.06;5009491;28;19961;-92
2024/01/03 10:45:07;;;;;;;;;;;;;;;6.84;100.00;97932.66;5003028;28;19976;-91
2024/01/03 10:47:42;;;;;;;;;;;;;;;6.80;100.00;97936.41;5003468;28;19917;-88
2024/01/03 10:50:20;;;;;;;;;;;;;;;6.79;100.00;97931.22;5001312;28;19921;-89
2024/01/03 10:52:46;;;;;;;;;;;;;;;6.86;100.00;97935.19;5002621;28;19926;-83
2024/01/03 10:55:18;;;;;;;;;;;;;;;6.89;100.00;97930.63;5002976;28;19924;-85
2024/01/03 10:57:50;;;;;;;;;;;;;;;6.89;100.00;97930.63;5002288;28;19918;-84
2024/01/03 11:00:19;;;;;;;;;;;;;;;6.89;100.00;97929.75;5002094;28;19925;-84
2024/01/03 11:02:57;;;;;;;;;;;;;;;6.92;100.00;97911.16;5002215;28;19918;-86
2024/01/03 11:05:32;;;;;;;;;;;;;;;6.99;100.00;97915.16;5001094;28;20422;-84
2024/01/03 11:08:04;;;;;;;;;;;;;;;6.87;100.00;97921.94;5017516;28;19972;-85
2024/01/03 11:10:51;;;;;;;;;;;;;;;6.88;100.00;97920.19;5002397;28;20017;-81
2024/01/03 11:13:32;;;;;;;;;;;;;;;6.86;100.00;97922.91;5002102;28;19922;-92
2024/01/03 11:15:58;;;;;;;;;;;;;;;6.79;100.00;97920.69;5002085;28;19918;-86
2024/01/03 11:18:47;;;;;;;;;;;;;;;6.77;100.00;97925.22;5002147;28;20575;-82
2024/01/03 11:21:28;;;;;;;;;;;;;;;6.88;100.00;97943.88;4999179;28;19928;-86
2024/01/03 11:23:54;;;;;;;;;;;;;;;6.89;100.00;97925.38;5002200;28;19918;-85
2024/01/03 11:26:19;;;;;;;;;;;;;;;6.98;100.00;97937.13;5002641;28;19928;-84
2024/01/03 11:28:48;;;;;;;;;;;;;;;7.00;100.00;97929.97;5003158;28;19914;-82
2024/01/03 11:31:13;;;;;;;;;;;;;;;7.02;100.00;97935.16;5002252;28;19968;-84
2024/01/03 11:33:38;;;;;;;;;;;;;;;6.97;100.00;97932.78;5000287;28;19918;-83
2024/01/03 11:36:04;;;;;;;;;;;;;;;6.96;100.00;97917.13;4999610;28;20414;-83
2024/01/03 11:38:50;;;;;;;;;;;;;;;6.87;100.00;97929.84;5002532;28;20388;-83
2024/01/03 11:41:16;;;;;;;;;;;;;;;6.85;100.00;97913.28;5001778;28;20384;-83
2024/01/03 11:43:41;;;;;;;;;;;;;;;6.78;100.00;97911.09;5009188;28;20056;-83
2024/01/03 11:46:08;;;;;;;;;;;;;;;6.83;100.00;97919.56;5004756;28;19925;-84
2024/01/03 11:48:33;;;;;;;;;;;;;;;6.77;100.00;97912.06;5006130;28;20411;-87
2024/01/03 11:50:58;;;;;;;;;;;;;;;6.79;100.00;97908.38;5004152;28;19917;-84
2024/01/03 11:53:24;;;;;;;;;;;;;;;6.71;100.00;97900.91;5005627;28;19922;-83
2024/01/03 11:55:50;;;;;;;;;;;;;;;6.70;100.00;97872.06;5005392;28;19940;-82
2024/01/03 11:58:15;;;;;;;;;;;;;;;6.79;100.00;97870.69;5005475;28;19979;-83
2024/01/03 12:00:41;;;;;;;;;;;;;;;6.69;100.00;97871.22;5005661;28;19947;-84
2024/01/03 12:03:06;;;;;;;;;;;;;;;6.81;100.00;97859.16;5005481;28;19918;-91
2024/01/03 12:05:31;;;;;;;;;;;;;;;6.81;100.00;97853.00;5004197;28;19928;-83
2024/01/03 12:08:00;;;;;;;;;;;;;;;6.82;100.00;97854.72;5005046;28;19917;-85
2024/01/03 12:10:25;;;;;;;;;;;;;;;6.75;100.00;97848.97;5005681;28;19917;-84
2024/01/03 12:12:52;;;;;;;;;;;;;;;6.82;100.00;97845.03;5005249;28;19917;-84
2024/01/03 12:15:21;;;;;;;;;;;;;;;6.85;100.00;97836.94;5005299;28;19964;-84
2024/01/03 12:17:47;;;;;;;;;;;;;;;6.88;100.00;97838.56;5005450;28;19922;-84
2024/01/03 12:20:15;;;;;;;;;;;;;;;6.94;100.00;97839.97;5003724;28;20177;-84
2024/01/03 12:22:40;;;;;;;;;;;;;;;7.02;100.00;97822.81;5004714;28;19925;-83
2024/01/03 12:25:06;;;;;;;;;;;;;;;6.97;100.00;97822.19;5005145;28;19926;-83
2024/01/03 12:27:33;;;;;;;;;;;;;;;6.90;100.00;97819.09;5005521;28;20265;-84
2024/01/03 12:30:12;;;;;;;;;;;;;;;6.91;100.00;97833.13;5004885;28;19924;-85
2024/01/03 12:32:37;;;;;;;;;;;;;;;6.92;100.00;97819.00;5005327;28;20602;-90
2024/01/03 12:35:05;;;;;;;;;;;;;;;7.02;100.00;97827.19;5003548;28;20072;-87
2024/01/03 12:37:31;;;;;;;;;;;;;;;6.95;100.00;97818.81;5003650;28;19921;-92
2024/01/03 12:40:02;;;;;;;;;;;;;;;6.92;100.00;97821.63;5005414;28;20296;-95
2024/01/03 12:42:27;;;;;;;;;;;;;;;6.91;100.00;97830.50;5005259;28;19971;-89
2024/01/03 12:44:52;;;;;;;;;;;;;;;6.90;100.00;97818.25;5005493;28;20012;-88
2024/01/03 12:47:18;;;;;;;;;;;;;;;6.90;100.00;97816.47;5004831;28;19925;-86
2024/01/03 12:49:44;;;;;;;;;;;;;;;6.95;100.00;97813.56;5004368;28;19976;-87
2024/01/03 12:52:10;;;;;;;;;;;;;;;6.89;100.00;97811.28;5003425;28;19922;-83
2024/01/03 12:54:35;;;;;;;;;;;;;;;6.86;100.00;97816.72;5004083;28;20012;-86
2024/01/03 12:57:02;;;;;;;;;;;;;;;6.85;100.00;97808.00;5003812;28;19964;-86
2024/01/03 12:59:27;;;;;;;;;;;;;;;6.84;100.00;97811.56;5004454;28;19925;-84
2024/01/03 13:01:52;;;;;;;;;;;;;;;6.85;100.00;97804.53;5004551;28;19917;-85
2024/01/03 13:04:18;;;;;;;;;;;;;;;6.75;100.00;97785.78;5004319;28;19918;-84
2024/01/03 13:06:44;;;;;;;;;;;;;;;6.88;100.00;97780.66;5002842;28;20357;-84
2024/01/03 13:09:10;;;;;;;;;;;;;;;6.90;100.00;97773.50;5004693;28;20081;-87
2024/01/03 13:11:35;;;;;;;;;;;;;;;6.91;100.00;97783.09;5004781;28;20384;-90
2024/01/03 13:14:01;;;;;;;;;;;;;;;6.84;100.00;97781.75;5004336;28;19945;-86
2024/01/03 13:16:26;;;;;;;;;;;;;;;6.87;100.00;97800.84;5004051;28;20273;-85
2024/01/03 13:18:52;;;;;;;;;;;;;;;6.84;100.00;97779.13;5004115;28;19976;-88
2024/01/03 13:21:17;;;;;;;;;;;;;;;6.87;100.00;97778.94;5003775;28;19922;-85
2024/01/03 13:23:57;;;;;;;;;;;;;;;6.94;100.00;97763.63;5004044;28;19924;-94
2024/01/03 13:26:23;;;;;;;;;;;;;;;6.88;100.00;97751.69;5004417;28;20395;-88
2024/01/03 13:28:48;;;;;;;;;;;;;;;6.94;100.00;97753.97;5004447;28;19972;-85
2024/01/03 13:31:14;;;;;;;;;;;;;;;6.91;100.00;97759.41;5003911;28;20380;-85
2024/01/03 13:33:39;;;;;;;;;;;;;;;6.86;100.00;97761.44;5003882;28;20609;-86
2024/01/03 13:36:05;;;;;;;;;;;;;;;6.85;100.00;97755.34;5002710;28;20030;-85
2024/01/03 13:38:30;;;;;;;;;;;;;;;6.93;100.00;97743.50;5003334;28;19922;-85
2024/01/03 13:40:55;;;;;;;;;;;;;;;6.83;100.00;97746.69;5004238;28;20419;-89
2024/01/03 13:43:21;;;;;;;;;;;;;;;6.82;100.00;97731.00;5010361;28;19924;-87
2024/01/03 13:45:48;;;;;;;;;;;;;;;6.80;100.00;97740.78;5003316;28;19928;-86
2024/01/03 13:48:13;;;;;;;;;;;;;;;6.73;100.00;97719.22;5003811;28;19917;-87
2024/01/03 13:50:38;;;;;;;;;;;;;;;6.87;100.00;97713.13;5008859;28;20266;-85
2024/01/03 13:53:06;;;;;;;;;;;;;;;6.93;100.00;97709.28;5001154;28;19921;-84
2024/01/03 13:55:31;;;;;;;;;;;;;;;6.90;100.00;97723.47;5002276;28;19917;-84
2024/01/03 13:57:57;;;;;;;;;;;;;;;6.96;100.00;97728.38;5003287;28;19944;-85
2024/01/03 14:00:22;;;;;;;;;;;;;;;6.84;100.00;97722.03;5003437;28;20367;-90
2024/01/03 14:02:49;;;;;;;;;;;;;;;6.85;100.00;97725.53;5001890;28;19993;-84
2024/01/03 14:05:16;;;;;;;;;;;;;;;6.89;100.00;97717.38;5009060;28;19921;-86
2024/01/03 14:07:42;;;;;;;;;;;;;;;6.83;100.00;97711.59;5002963;28;19956;-86
2024/01/03 14:10:08;;;;;;;;;;;;;;;6.90;100.00;97720.84;5001787;28;19950;-87
2024/01/03 14:12:33;;;;;;;;;;;;;;;6.93;100.00;97710.13;5010119;28;19917;-85
2024/01/03 14:14:58;;;;;;;;;;;;;;;6.93;100.00;97701.38;5002929;28;19922;-84
2024/01/03 14:17:23;;;;;;;;;;;;;;;6.84;100.00;97705.41;5001625;28;19924;-86
2024/01/03 14:19:49;;;;;;;;;;;;;;;6.81;100.00;97697.69;5003147;28;19913;-86
2024/01/03 14:22:14;;;;;;;;;;;;;;;6.79;100.00;97692.53;5001704;28;20327;-86
2024/01/03 14:24:39;;;;;;;;;;;;;;;6.75;100.00;97684.91;5002725;28;19922;-86
2024/01/03 14:27:04;;;;;;;;;;;;;;;6.84;100.00;97681.72;5009847;28;19924;-88
2024/01/03 14:29:29;;;;;;;;;;;;;;;6.89;100.00;97683.16;5003016;28;19918;-87
2024/01/03 14:31:55;;;;;;;;;;;;;;;6.84;100.00;97673.81;5002722;28;20008;-88
2024/01/03 14:34:21;;;;;;;;;;;;;;;6.96;100.00;97693.31;5008474;28;19918;-87
2024/01/03 14:37:06;;;;;;;;;;;;;;;6.88;100.00;97699.03;5001672;28;19932;-89
2024/01/03 14:39:34;;;;;;;;;;;;;;;6.96;100.00;97688.03;5002484;28;19917;-86
2024/01/03 14:42:05;;;;;;;;;;;;;;;6.95;100.00;97687.16;5002889;28;19926;-85
2024/01/03 14:44:31;;;;;;;;;;;;;;;6.95;100.00;97674.00;5002457;28;19918;-86
2024/01/03 14:46:58;;;;;;;;;;;;;;;6.92;100.00;97671.56;5002239;28;19983;-88
2024/01/03 14:49:24;;;;;;;;;;;;;;;6.93;100.00;97665.38;5002254;28;19925;-88
2024/01/03 14:51:50;;;;;;;;;;;;;;;6.95;100.00;97658.22;4999177;28;19922;-86
2024/01/03 14:54:15;;;;;;;;;;;;;;;6.85;100.00;97644.78;5002629;28;19929;-85
2024/01/03 14:56:40;;;;;;;;;;;;;;;6.89;100.00;97640.16;5002830;28;19924;-84
2024/01/03 14:59:06;;;;;;;;;;;;;;;6.93;100.00;97639.03;5002901;28;19925;-87
2024/01/03 15:01:31;;;;;;;;;;;;;;;6.94;100.00;97646.00;5001769;28;19997;-83
2024/01/03 15:03:56;;;;;;;;;;;;;;;7.04;100.00;97669.97;5000565;28;19976;-83
2024/01/03 15:06:21;;;;;;;;;;;;;;;7.09;100.00;97684.53;5008548;28;19921;-84
2024/01/03 15:08:48;;;;;;;;;;;;;;;7.11;100.00;97678.34;5002349;28;19918;-84
2024/01/03 15:11:14;;;;;;;;;;;;;;;7.12;100.00;97656.34;5003061;28;20309;-85
2024/01/03 15:13:39;;;;;;;;;;;;;;;7.00;100.00;97669.28;5002572;28;19976;-85
2024/01/03 15:16:05;;;;;;;;;;;;;;;6.89;100.00;97662.09;5000918;28;20021;-85
2024/01/03 15:18:30;;;;;;;;;;;;;;;7.00;100.00;97673.72;5002396;28;19926;-84
2024/01/03 15:20:55;;;;;;;;;;;;;;;6.94;100.00;97667.06;5004618;28;20012;-85
2024/01/03 15:23:22;;;;;;;;;;;;;;;6.94;100.00;97653.91;5006905;28;20292;-86
2024/01/03 15:25:48;;;;;;;;;;;;;;;7.03;100.00;97647.19;5006050;28;19926;-85
2024/01/03 15:28:15;;;;;;;;;;;;;;;7.02;100.00;97653.41;5006460;28;19924;-85
2024/01/03 15:30:41;;;;;;;;;;;;;;;7.05;100.00;97645.31;5006434;28;19922;-85
2024/01/03 15:33:06;;;;;;;;;;;;;;;6.96;100.00;97638.84;5006027;28;20331;-87
2024/01/03 15:35:32;;;;;;;;;;;;;;;6.91;100.00;97643.56;5006122;28;20354;-85
2024/01/03 15:37:57;;;;;;;;;;;;;;;6.96;100.00;97625.69;5005818;28;19987;-83
2024/01/03 15:40:26;;;;;;;;;;;;;;;6.97;100.00;97623.88;5006261;28;20400;-85
2024/01/03 15:42:51;;;;;;;;;;;;;;;6.99;100.00;97612.31;5006187;28;19918;-83
2024/01/03 15:45:17;;;;;;;;;;;;;;;6.94;100.00;97598.63;5006635;28;19924;-85
2024/01/03 15:47:42;;;;;;;;;;;;;;;6.96;100.00;97620.41;5004672;28;19924;-84
2024/01/03 15:50:12;;;;;;;;;;;;;;;6.91;100.00;97611.97;5003669;28;19941;-87
2024/01/03 15:52:38;;;;;;;;;;;;;;;6.93;100.00;97620.59;5005465;28;20003;-83
2024/01/03 15:55:04;;;;;;;;;;;;;;;6.93;100.00;97625.03;5005632;28;20036;-87
2024/01/03 15:57:29;;;;;;;;;;;;;;;6.86;100.00;97625.41;5004336;28;20412;-86
2024/01/03 15:59:55;;;;;;;;;;;;;;;6.90;100.00;97623.44;5004174;28;19964;-84
2024/01/03 16:02:20;;;;;;;;;;;;;;;6.91;100.00;97602.28;5004650;28;19922;-86
2024/01/03 16:04:45;;;;;;;;;;;;;;;6.92;100.00;97600.47;5004890;28;19944;-85
2024/01/03 16:07:12;;;;;;;;;;;;;;;6.99;100.00;97608.81;5003930;28;19921;-85
2024/01/03 16:09:37;;;;;;;;;;;;;;;6.92;100.00;97597.84;5005325;28;19921;-84
2024/01/03 16:12:04;;;;;;;;;;;;;;;6.89;100.00;97593.63;5005481;28;20424;-85
2024/01/03 16:14:29;;;;;;;;;;;;;;;6.84;100.00;97586.94;5005166;28;19918;-85
2024/01/03 16:16:55;;;;;;;;;;;;;;;6.88;100.00;97596.34;5005338;28;19922;-86
2024/01/03 16:19:20;;;;;;;;;;;;;;;6.88;100.00;97591.09;5011998;28;19932;-87
2024/01/03 16:21:45;;;;;;;;;;;;;;;6.86;100.00;97583.28;5004060;28;20432;-88
2024/01/03 16:24:11;;;;;;;;;;;;;;;6.94;100.00;97588.09;5004995;28;19925;-82
2024/01/03 16:26:36;;;;;;;;;;;;;;;6.86;100.00;97582.44;5005215;28;19922;-84
2024/01/03 16:29:01;;;;;;;;;;;;;;;6.90;100.00;97595.31;5005208;28;19922;-86
2024/01/03 16:31:28;;;;;;;;;;;;;;;6.86;100.00;97585.06;5004859;28;20401;-84
2024/01/03 16:33:53;;;;;;;;;;;;;;;6.97;100.00;97603.66;5011768;28;19944;-83
2024/01/03 16:36:19;;;;;;;;;;;;;;;6.94;100.00;97603.88;5001102;28;20352;-84
2024/01/03 16:38:44;;;;;;;;;;;;;;;6.97;100.00;97630.00;5003061;28;20067;-83
2024/01/03 16:41:13;;;;;;;;;;;;;;;6.93;100.00;97633.78;5003788;28;19918;-83
2024/01/03 16:43:39;;;;;;;;;;;;;;;6.94;100.00;97642.50;5003444;28;20392;-88
2024/01/03 16:46:04;;;;;;;;;;;;;;;6.95;100.00;97655.56;5004033;28;20065;-86
2024/01/03 16:48:29;;;;;;;;;;;;;;;6.91;100.00;97647.03;5004638;28;19914;-83
2024/01/03 16:50:55;;;;;;;;;;;;;;;6.97;100.00;97647.59;5002388;28;19949;-86
2024/01/03 16:53:20;;;;;;;;;;;;;;;7.03;100.00;97620.88;5004461;28;19945;-82
2024/01/03 16:55:45;;;;;;;;;;;;;;;6.96;100.00;97612.53;5003625;28;20157;-85
2024/01/03 16:58:10;;;;;;;;;;;;;;;7.04;100.00;97612.88;5004444;28;19941;-84
2024/01/03 17:00:36;;;;;;;;;;;;;;;6.96;100.00;97606.41;5003972;28;19932;-83
2024/01/03 17:03:02;;;;;;;;;;;;;;;6.83;100.00;97624.72;5001880;28;20357;-83
2024/01/03 17:05:28;;;;;;;;;;;;;;;6.98;100.00;97620.31;5002524;28;19922;-87
2024/01/03 17:07:53;;;;;;;;;;;;;;;6.89;100.00;97629.63;5003291;28;19914;-86
2024/01/03 17:10:19;;;;;;;;;;;;;;;6.96;100.00;97638.00;5003729;28;20020;-86
2024/01/03 17:12:44;;;;;;;;;;;;;;;7.04;100.00;97639.22;5011050;28;19921;-85
2024/01/03 17:15:21;;;;;;;;;;;;;;;6.98;100.00;97650.13;5001972;28;19965;-87
2024/01/03 17:17:49;;;;;;;;;;;;;;;6.97;100.00;97648.41;5002375;28;19969;-87
2024/01/03 17:20:17;;;;;;;;;;;;;;;6.98;100.00;97654.56;5001607;28;20269;-87
2024/01/03 17:22:45;;;;;;;;;;;;;;;6.96;100.00;97661.72;5003068;28;19980;-86
2024/01/03 17:25:11;;;;;;;;;;;;;;;7.00;100.00;97660.56;5003363;28;19918;-86
2024/01/03 17:27:38;;;;;;;;;;;;;;;6.93;100.00;97670.63;5001697;28;20491;-87
2024/01/03 17:30:04;;;;;;;;;;;;;;;6.91;100.00;97672.53;5003313;28;19921;-87
2024/01/03 17:32:32;;;;;;;;;;;;;;;6.85;100.00;97681.63;5003047;28;20036;-86
2024/01/03 17:34:57;;;;;;;;;;;;;;;6.84;100.00;97703.63;5002319;28;20368;-86
2024/01/03 17:37:25;;;;;;;;;;;;;;;6.84;100.00;97703.63;5002446;28;19918;-86
2024/01/03 17:39:51;;;;;;;;;;;;;;;6.96;100.00;97698.56;5003195;28;19944;-86
2024/01/03 17:42:18;;;;;;;;;;;;;;;6.94;100.00;97724.13;5002095;28;20401;-86
2024/01/03 17:44:44;;;;;;;;;;;;;;;6.90;100.00;97728.75;5001435;28;19918;-86
2024/01/03 17:47:16;;;;;;;;;;;;;;;6.85;100.00;97730.81;5002657;28;20261;-86
2024/01/03 17:49:46;;;;;;;;;;;;;;;6.78;100.00;97732.97;5002764;28;19918;-87
2024/01/03 17:52:14;;;;;;;;;;;;;;;6.79;100.00;97733.81;5000719;28;20301;-90
2024/01/03 17:54:39;;;;;;;;;;;;;;;6.71;100.00;97729.84;5002804;28;19926;-87
2024/01/03 17:57:08;;;;;;;;;;;;;;;6.72;100.00;97738.59;5001227;28;19983;-87
2024/01/03 17:59:36;;;;;;;;;;;;;;;6.80;100.00;97727.63;5002563;28;19918;-87
2024/01/03 18:02:04;;;;;;;;;;;;;;;6.81;100.00;97729.28;5001666;28;20015;-86
2024/01/03 18:04:31;;;;;;;;;;;;;;;6.81;100.00;97730.16;5002807;28;19963;-86
2024/01/03 18:06:57;;;;;;;;;;;;;;;6.77;100.00;97746.22;5001723;28;19925;-85
2024/01/03 18:09:22;;;;;;;;;;;;;;;6.71;100.00;97742.16;5002639;28;19976;-85
2024/01/03 18:11:48;;;;;;;;;;;;;;;6.89;100.00;97738.44;5002133;28;20356;-86
2024/01/03 18:14:14;;;;;;;;;;;;;;;6.84;100.00;97747.53;5001524;28;19971;-86
2024/01/03 18:16:39;;;;;;;;;;;;;;;6.73;100.00;97764.81;5001305;28;20020;-85
2024/01/03 18:19:05;;;;;;;;;;;;;;;6.76;100.00;97761.16;5000994;28;20019;-85
2024/01/03 18:21:39;;;;;;;;;;;;;;;6.84;100.00;97758.06;5000008;28;19972;-88
2024/01/03 18:24:08;;;;;;;;;;;;;;;6.79;100.00;97742.53;5002206;28;19982;-85
2024/01/03 18:26:33;;;;;;;;;;;;;;;6.76;100.00;97726.09;5002072;28;19918;-85
2024/01/03 18:28:58;;;;;;;;;;;;;;;6.85;100.00;97765.03;5015845;28;20416;-86
2024/01/03 18:31:24;;;;;;;;;;;;;;;6.75;100.00;97764.75;5002220;28;19969;-86
2024/01/03 18:33:52;;;;;;;;;;;;;;;6.89;100.00;97762.13;5002013;28;19917;-86
2024/01/03 18:36:18;;;;;;;;;;;;;;;6.80;100.00;97773.19;5007262;28;19922;-85
2024/01/03 18:38:43;;;;;;;;;;;;;;;6.73;100.00;97769.22;5002179;28;19921;-85
2024/01/03 18:41:09;;;;;;;;;;;;;;;6.76;100.00;97773.47;5002352;28;19918;-86
2024/01/03 18:43:34;;;;;;;;;;;;;;;6.71;100.00;97771.94;5001957;28;19922;-85
2024/01/03 18:45:59;;;;;;;;;;;;;;;6.72;100.00;97781.53;5002167;28;20333;-85
2024/01/03 18:48:24;;;;;;;;;;;;;;;6.71;100.00;97768.47;5002044;28;19921;-85
2024/01/03 18:50:50;;;;;;;;;;;;;;;6.76;100.00;97771.69;5000224;28;19918;-86
2024/01/03 18:53:15;;;;;;;;;;;;;;;6.69;100.00;97781.72;5000936;28;19929;-85
2024/01/03 18:55:40;;;;;;;;;;;;;;;6.77;100.00;97783.06;5001248;28;20476;-85
2024/01/03 18:58:07;;;;;;;;;;;;;;;6.79;100.00;97781.19;5001704;28;19922;-85
2024/01/03 19:00:35;;;;;;;;;;;;;;;6.69;100.00;97781.72;5001545;28;20008;-86
2024/01/03 19:03:03;;;;;;;;;;;;;;;6.77;100.00;97785.72;5001570;28;19918;-86
2024/01/03 19:05:29;;;;;;;;;;;;;;;6.73;100.00;97780.63;4998345;28;20395;-85
2024/01/03 19:07:55;;;;;;;;;;;;;;;6.72;100.00;97791.25;5001984;28;19922;-86
2024/01/03 19:10:20;;;;;;;;;;;;;;;6.70;100.00;97777.31;5000656;28;19924;-86
2024/01/03 19:12:45;;;;;;;;;;;;;;;6.86;100.00;97808.81;5001925;28;20360;-86
2024/01/03 19:15:12;;;;;;;;;;;;;;;6.89;100.00;97791.09;5000997;28;19918;-86
2024/01/03 19:17:37;;;;;;;;;;;;;;;6.76;100.00;97791.91;5000440;28;20006;-85
2024/01/03 19:20:03;;;;;;;;;;;;;;;6.74;100.00;97794.63;5000847;28;19930;-85
2024/01/03 19:22:30;;;;;;;;;;;;;;;6.87;100.00;97789.47;5001403;28;19918;-85
2024/01/03 19:24:55;;;;;;;;;;;;;;;6.89;100.00;97793.72;5001831;28;20039;-86
2024/01/03 19:27:21;;;;;;;;;;;;;;;6.80;100.00;97782.91;5001260;28;20441;-85
2024/01/03 19:29:47;;;;;;;;;;;;;;;6.79;100.00;97775.94;5001330;28;19981;-85
2024/01/03 19:32:12;;;;;;;;;;;;;;;6.82;100.00;97786.28;5001187;28;20336;-86
2024/01/03 19:34:37;;;;;;;;;;;;;;;6.85;100.00;97788.72;5001754;28;19917;-86
2024/01/03 19:37:05;;;;;;;;;;;;;;;6.79;100.00;97787.28;5000391;28;19924;-89
2024/01/03 19:39:33;;;;;;;;;;;;;;;6.78;100.00;97790.00;5000780;28;19917;-86
2024/01/03 19:42:00;;;;;;;;;;;;;;;6.77;100.00;97797.06;5001437;28;19921;-90